createdAt,value
2018-12-07T00:00:30.154Z,98.47
2018-12-07T00:01:30.172Z,98.75
2018-12-07T00:02:30.200Z,98.75
2018-12-07T00:03:30.260Z,98.18
2018-12-07T00:04:30.229Z,97.71
2018-12-07T00:05:30.240Z,98.57
2018-12-07T00:06:30.255Z,98.28
2018-12-07T00:07:30.275Z,98.47
2018-12-07T00:08:30.302Z,98.75
2018-12-07T00:09:30.316Z,98.75
2018-12-07T00:10:30.332Z,98.38
2018-12-07T00:11:30.354Z,98.95
2018-12-07T00:12:30.376Z,98.38
2018-12-07T00:13:30.386Z,98.28
2018-12-07T00:14:30.431Z,98.18
2018-12-07T00:15:30.423Z,97.99
2018-12-07T00:16:30.437Z,98.47
2018-12-07T00:18:30.491Z,98.57
2018-12-07T00:19:30.503Z,98.75
2018-12-07T00:20:30.514Z,98.85
2018-12-07T00:21:30.532Z,99.43
2018-12-07T00:22:30.546Z,98.28
2018-12-07T00:23:30.582Z,98.57
2018-12-07T00:25:51.622Z,99.62
2018-12-07T00:26:30.621Z,99.71
2018-12-07T00:27:30.763Z,99.99
2018-12-07T00:28:30.699Z,99.99
2018-12-07T00:29:30.676Z,99.99
2018-12-07T00:30:30.701Z,99.71
2018-12-07T00:31:30.720Z,99.52
2018-12-07T00:32:30.750Z,99.71
2018-12-07T00:33:30.755Z,99.90
2018-12-07T00:34:30.771Z,99.71
2018-12-07T00:35:30.789Z,99.52
2018-12-07T00:36:30.828Z,99.52
2018-12-07T00:37:30.833Z,98.95
2018-12-07T00:38:30.920Z,98.28
2018-12-07T00:39:30.862Z,97.71
2018-12-07T00:40:30.873Z,97.80
2018-12-07T00:41:51.911Z,98.28
2018-12-07T00:42:30.922Z,99.04
2018-12-07T00:43:30.932Z,99.81
2018-12-07T00:44:30.951Z,99.43
2018-12-07T00:45:30.998Z,99.62
2018-12-07T00:46:31.000Z,99.43
2018-12-07T00:47:31.003Z,99.52
2018-12-07T00:48:31.011Z,99.71
2018-12-07T00:49:31.066Z,99.14
2018-12-07T00:50:31.052Z,99.43
2018-12-07T00:51:31.079Z,99.99
2018-12-07T00:52:31.084Z,99.99
2018-12-07T00:53:31.101Z,99.81
2018-12-07T00:54:31.122Z,99.81
2018-12-07T00:55:31.246Z,99.99
2018-12-07T00:56:31.169Z,99.90
2018-12-07T00:57:31.181Z,99.85
2018-12-07T00:58:31.203Z,99.99
2018-12-07T00:59:31.212Z,99.99
2018-12-07T01:00:31.245Z,99.99
2018-12-07T01:02:31.283Z,99.99
2018-12-07T01:03:31.284Z,99.99
2018-12-07T01:04:31.323Z,99.90
2018-12-07T01:05:31.335Z,99.99
2018-12-07T01:06:31.342Z,99.99
2018-12-07T01:07:31.365Z,99.99
2018-12-07T01:08:31.374Z,99.99
2018-12-07T01:09:31.407Z,99.99
2018-12-07T01:10:31.411Z,99.99
2018-12-07T01:11:31.443Z,99.99
2018-12-07T01:12:31.451Z,99.99
2018-12-07T01:13:31.482Z,99.99
2018-12-07T01:14:31.488Z,99.99
2018-12-07T01:15:31.499Z,99.99
2018-12-07T01:16:31.520Z,99.99
2018-12-07T01:17:31.532Z,99.99
2018-12-07T01:18:31.586Z,99.99
2018-12-07T01:19:31.736Z,99.99
2018-12-07T01:20:31.590Z,99.99
2018-12-07T01:21:31.616Z,99.99
2018-12-07T01:22:31.652Z,99.99
2018-12-07T01:23:31.685Z,99.99
2018-12-07T01:24:31.695Z,99.99
2018-12-07T01:25:31.682Z,99.99
2018-12-07T01:26:31.696Z,99.99
2018-12-07T01:27:31.716Z,99.99
2018-12-07T01:28:31.750Z,99.99
2018-12-07T01:29:31.764Z,99.99
2018-12-07T01:30:31.776Z,99.99
2018-12-07T01:31:31.785Z,99.99
2018-12-07T01:32:31.805Z,99.99
2018-12-07T01:33:31.823Z,99.99
2018-12-07T01:34:31.845Z,99.99
2018-12-07T01:35:31.861Z,99.99
2018-12-07T01:36:31.920Z,99.99
2018-12-07T01:37:31.900Z,99.99
2018-12-07T01:38:31.913Z,99.99
2018-12-07T01:39:31.931Z,99.99
2018-12-07T01:40:31.956Z,99.99
2018-12-07T01:41:31.969Z,99.99
2018-12-07T01:42:31.982Z,99.99
2018-12-07T01:43:32.015Z,99.99
2018-12-07T01:44:32.037Z,99.99
2018-12-07T01:45:32.039Z,99.99
2018-12-07T01:46:32.061Z,99.99
2018-12-07T01:47:53.090Z,99.99
2018-12-07T01:48:32.088Z,99.99
2018-12-07T01:49:32.112Z,99.99
2018-12-07T01:50:32.122Z,99.99
2018-12-07T01:51:32.145Z,99.99
2018-12-07T01:52:32.191Z,99.99
2018-12-07T01:53:32.192Z,99.99
2018-12-07T01:54:32.196Z,99.99
2018-12-07T01:55:32.215Z,99.99
2018-12-07T01:56:32.234Z,99.99
2018-12-07T01:57:32.252Z,99.99
2018-12-07T01:58:32.271Z,99.99
2018-12-07T01:59:32.282Z,99.99
2018-12-07T02:00:32.328Z,99.99
2018-12-07T02:01:32.321Z,99.99
2018-12-07T02:02:32.352Z,99.99
2018-12-07T02:03:32.358Z,99.99
2018-12-07T02:04:32.419Z,99.99
2018-12-07T02:05:32.387Z,99.99
2018-12-07T02:06:32.407Z,99.99
2018-12-07T02:07:32.425Z,99.99
2018-12-07T02:08:32.441Z,99.99
2018-12-07T02:09:32.463Z,99.99
2018-12-07T02:10:32.488Z,99.99
2018-12-07T02:11:32.563Z,99.99
2018-12-07T02:12:32.522Z,99.99
2018-12-07T02:13:32.540Z,99.99
2018-12-07T02:14:32.553Z,99.99
2018-12-07T02:15:32.712Z,99.99
2018-12-07T02:16:32.592Z,99.99
2018-12-07T02:17:32.607Z,99.99
2018-12-07T02:18:32.634Z,99.99
2018-12-07T02:19:32.637Z,99.99
2018-12-07T02:20:32.658Z,99.99
2018-12-07T02:21:32.679Z,99.99
2018-12-07T02:22:32.686Z,99.99
2018-12-07T02:24:32.733Z,99.99
2018-12-07T02:25:32.744Z,99.99
2018-12-07T02:26:32.767Z,99.99
2018-12-07T02:27:32.792Z,99.99
2018-12-07T02:28:32.812Z,99.99
2018-12-07T02:29:32.816Z,99.99
2018-12-07T02:30:32.836Z,99.99
2018-12-07T02:31:32.858Z,99.99
2018-12-07T02:32:32.873Z,99.99
2018-12-07T02:33:32.896Z,99.99
2018-12-07T02:34:32.910Z,99.99
2018-12-07T02:35:32.930Z,99.99
2018-12-07T02:36:32.938Z,99.99
2018-12-07T02:37:32.962Z,99.99
2018-12-07T02:38:33.002Z,99.99
2018-12-07T02:39:33.008Z,99.99
2018-12-07T02:40:33.021Z,99.99
2018-12-07T02:41:33.028Z,99.99
2018-12-07T02:42:33.058Z,99.99
2018-12-07T02:43:33.157Z,99.99
2018-12-07T02:44:33.097Z,99.99
2018-12-07T02:45:33.099Z,99.99
2018-12-07T02:46:33.122Z,99.99
2018-12-07T02:47:33.155Z,99.99
2018-12-07T02:48:33.157Z,99.99
2018-12-07T02:49:33.176Z,99.99
2018-12-07T02:50:33.191Z,99.99
2018-12-07T02:52:33.228Z,99.99
2018-12-07T02:53:33.242Z,99.99
2018-12-07T02:54:33.329Z,99.99
2018-12-07T02:58:33.337Z,99.99
2018-12-07T02:59:33.353Z,99.99
2018-12-07T03:00:33.373Z,99.99
2018-12-07T03:01:33.388Z,99.81
2018-12-07T03:02:33.404Z,99.99
2018-12-07T03:03:33.436Z,99.99
2018-12-07T03:04:33.449Z,99.99
2018-12-07T03:05:33.460Z,99.99
2018-12-07T03:06:33.481Z,99.99
2018-12-07T03:07:33.554Z,99.90
2018-12-07T03:08:33.510Z,99.99
2018-12-07T03:09:33.530Z,99.99
2018-12-07T03:10:33.551Z,99.99
2018-12-07T03:11:33.575Z,99.33
2018-12-07T03:12:33.599Z,99.43
2018-12-07T03:13:33.604Z,99.43
2018-12-07T03:14:33.624Z,99.99
2018-12-07T03:15:33.653Z,99.95
2018-12-07T03:16:33.663Z,99.90
2018-12-07T03:17:33.676Z,99.99
2018-12-07T03:18:33.700Z,99.99
2018-12-07T03:19:33.716Z,99.99
2018-12-07T03:20:33.796Z,99.95
2018-12-07T03:21:33.753Z,99.90
2018-12-07T03:22:33.771Z,99.99
2018-12-07T03:23:33.790Z,99.71
2018-12-07T03:24:33.863Z,99.99
2018-12-07T03:25:33.829Z,99.71
2018-12-07T03:26:33.839Z,99.99
2018-12-07T03:28:33.875Z,99.99
2018-12-07T03:29:33.890Z,99.99
2018-12-07T03:30:33.911Z,99.99
2018-12-07T03:32:33.963Z,99.62
2018-12-07T03:33:33.963Z,99.99
2018-12-07T03:34:33.977Z,99.99
2018-12-07T03:35:34.004Z,99.81
2018-12-07T03:37:34.045Z,99.81
2018-12-07T03:38:34.053Z,99.95
2018-12-07T03:39:34.071Z,99.81
2018-12-07T03:40:34.088Z,99.90
2018-12-07T03:41:34.111Z,99.99
2018-12-07T03:42:34.129Z,99.99
2018-12-07T03:43:34.145Z,99.99
2018-12-07T03:44:34.170Z,99.99
2018-12-07T03:45:34.211Z,99.99
2018-12-07T03:46:34.239Z,99.99
2018-12-07T03:47:34.293Z,99.99
2018-12-07T03:48:34.265Z,99.99
2018-12-07T03:49:34.253Z,99.99
2018-12-07T03:50:34.268Z,99.99
2018-12-07T03:51:34.289Z,99.99
2018-12-07T03:52:34.336Z,99.99
2018-12-07T03:53:34.326Z,99.99
2018-12-07T03:54:34.344Z,99.99
2018-12-07T03:55:34.357Z,99.99
2018-12-07T03:56:34.376Z,99.99
2018-12-07T03:57:34.397Z,99.99
2018-12-07T03:58:34.412Z,99.99
2018-12-07T03:59:34.428Z,99.99
2018-12-07T04:00:34.450Z,99.99
2018-12-07T04:01:34.472Z,99.99
2018-12-07T04:02:34.481Z,99.99
2018-12-07T04:03:34.508Z,99.99
2018-12-07T04:04:34.526Z,99.99
2018-12-07T04:05:34.545Z,99.99
2018-12-07T04:06:34.564Z,99.99
2018-12-07T04:07:34.599Z,99.99
2018-12-07T04:08:34.603Z,99.99
2018-12-07T04:09:34.610Z,99.99
2018-12-07T04:10:34.645Z,99.99
2018-12-07T04:11:34.648Z,99.99
2018-12-07T04:12:34.694Z,99.99
2018-12-07T04:13:34.689Z,99.99
2018-12-07T04:14:34.704Z,99.99
2018-12-07T04:15:34.729Z,99.99
2018-12-07T04:16:34.760Z,99.99
2018-12-07T04:17:34.748Z,99.99
2018-12-07T04:18:34.766Z,99.99
2018-12-07T04:19:34.789Z,99.99
2018-12-07T04:20:34.852Z,99.99
2018-12-07T04:21:34.822Z,99.99
2018-12-07T04:22:34.841Z,99.99
2018-12-07T04:23:34.861Z,99.99
2018-12-07T04:24:34.880Z,99.99
2018-12-07T04:25:34.898Z,99.99
2018-12-07T04:26:34.922Z,99.99
2018-12-07T04:27:34.933Z,99.99
2018-12-07T04:28:36.221Z,99.99
2018-12-07T04:29:35.012Z,99.99
2018-12-07T04:30:34.998Z,99.99
2018-12-07T04:32:35.032Z,99.99
2018-12-07T04:33:35.084Z,99.99
2018-12-07T04:34:35.057Z,99.99
2018-12-07T04:35:35.078Z,99.99
2018-12-07T04:36:35.090Z,99.99
2018-12-07T04:37:35.112Z,99.99
2018-12-07T04:38:35.130Z,99.99
2018-12-07T04:39:35.148Z,99.99
2018-12-07T04:40:35.172Z,99.99
2018-12-07T04:41:35.231Z,99.99
2018-12-07T04:42:35.252Z,99.99
2018-12-07T04:43:35.215Z,99.99
2018-12-07T04:44:35.333Z,99.99
2018-12-07T04:45:35.250Z,99.99
2018-12-07T04:46:35.286Z,99.99
2018-12-07T04:47:35.287Z,99.99
2018-12-07T04:48:35.304Z,99.99
2018-12-07T04:49:35.340Z,99.99
2018-12-07T04:50:35.343Z,99.99
2018-12-07T04:51:35.357Z,99.99
2018-12-07T04:52:35.384Z,99.99
2018-12-07T04:53:35.398Z,99.99
2018-12-07T04:54:35.418Z,99.99
2018-12-07T04:55:35.523Z,99.99
2018-12-07T04:56:35.473Z,99.99
2018-12-07T04:57:35.534Z,99.99
2018-12-07T04:58:35.574Z,99.99
2018-12-07T04:59:35.506Z,99.99
2018-12-07T05:00:35.530Z,99.99
2018-12-07T05:01:35.552Z,99.99
2018-12-07T05:02:35.561Z,99.99
2018-12-07T05:03:35.575Z,99.99
2018-12-07T05:05:35.609Z,99.99
2018-12-07T05:06:35.629Z,99.99
2018-12-07T05:08:35.676Z,99.99
2018-12-07T05:09:35.687Z,99.99
2018-12-07T05:10:35.745Z,99.99
2018-12-07T05:11:35.722Z,99.99
2018-12-07T05:13:35.771Z,99.99
2018-12-07T05:14:35.780Z,99.99
2018-12-07T05:15:35.834Z,99.99
2018-12-07T05:16:35.799Z,99.99
2018-12-07T05:17:35.823Z,99.99
2018-12-07T05:18:35.874Z,99.99
2018-12-07T05:19:35.861Z,99.99
2018-12-07T05:20:35.874Z,99.99
2018-12-07T05:21:35.889Z,99.99
2018-12-07T05:22:35.904Z,99.99
2018-12-07T05:23:35.928Z,99.99
2018-12-07T05:24:35.951Z,99.99
2018-12-07T05:25:35.962Z,99.99
2018-12-07T05:26:35.978Z,99.99
2018-12-07T05:27:36.006Z,99.99
2018-12-07T05:28:36.020Z,99.99
2018-12-07T05:29:36.028Z,99.99
2018-12-07T05:30:36.063Z,99.99
2018-12-07T05:31:36.070Z,99.99
2018-12-07T05:32:36.082Z,99.99
2018-12-07T05:34:36.124Z,99.99
2018-12-07T05:35:36.166Z,99.99
2018-12-07T05:36:36.162Z,99.99
2018-12-07T05:37:36.180Z,99.99
2018-12-07T05:38:36.189Z,99.99
2018-12-07T05:39:36.208Z,99.99
2018-12-07T05:40:36.228Z,99.99
2018-12-07T05:41:36.276Z,99.99
2018-12-07T05:42:36.282Z,99.99
2018-12-07T05:43:36.330Z,99.99
2018-12-07T05:44:36.324Z,99.99
2018-12-07T05:45:36.337Z,99.99
2018-12-07T05:46:36.340Z,99.99
2018-12-07T05:47:36.356Z,99.99
2018-12-07T05:48:36.390Z,99.99
2018-12-07T05:49:36.450Z,99.99
2018-12-07T05:50:36.424Z,99.99
2018-12-07T05:51:36.496Z,99.99
2018-12-07T05:52:36.454Z,99.99
2018-12-07T05:53:36.586Z,99.99
2018-12-07T05:54:36.487Z,99.99
2018-12-07T05:55:36.497Z,99.99
2018-12-07T05:56:36.517Z,99.99
2018-12-07T05:57:36.547Z,99.99
2018-12-07T05:58:36.552Z,99.99
2018-12-07T05:59:36.566Z,99.99
2018-12-07T06:00:36.576Z,99.99
2018-12-07T06:01:36.603Z,99.99
2018-12-07T06:02:36.612Z,99.99
2018-12-07T06:03:36.641Z,99.99
2018-12-07T06:04:36.754Z,99.99
2018-12-07T06:05:36.692Z,99.99
2018-12-07T06:06:36.761Z,99.99
2018-12-07T06:07:36.713Z,99.99
2018-12-07T06:08:36.720Z,99.99
2018-12-07T06:09:36.738Z,99.99
2018-12-07T06:10:36.754Z,99.99
2018-12-07T06:11:36.791Z,99.99
2018-12-07T06:12:36.796Z,99.99
2018-12-07T06:13:36.808Z,99.99
2018-12-07T06:14:36.912Z,99.99
2018-12-07T06:15:36.859Z,99.99
2018-12-07T06:16:36.860Z,99.99
2018-12-07T06:17:37.095Z,99.99
2018-12-07T06:18:36.897Z,99.99
2018-12-07T06:19:36.919Z,99.99
2018-12-07T06:20:36.933Z,99.99
2018-12-07T06:21:36.961Z,99.99
2018-12-07T06:22:36.970Z,99.99
2018-12-07T06:23:36.989Z,99.99
2018-12-07T06:24:37.016Z,99.99
2018-12-07T06:25:37.049Z,99.99
2018-12-07T06:26:37.041Z,99.99
2018-12-07T06:27:37.062Z,99.99
2018-12-07T06:28:37.084Z,99.95
2018-12-07T06:29:37.102Z,99.99
2018-12-07T06:30:37.107Z,99.99
2018-12-07T06:32:37.292Z,99.99
2018-12-07T06:33:37.186Z,99.99
2018-12-07T06:34:37.183Z,99.99
2018-12-07T06:35:37.199Z,99.95
2018-12-07T06:36:37.216Z,99.85
2018-12-07T06:37:37.240Z,99.38
2018-12-07T06:38:37.253Z,99.33
2018-12-07T06:39:37.274Z,99.48
2018-12-07T06:40:37.296Z,99.38
2018-12-07T06:41:37.319Z,99.66
2018-12-07T06:42:37.329Z,99.38
2018-12-07T06:43:37.342Z,99.28
2018-12-07T06:44:37.365Z,98.90
2018-12-07T06:45:37.439Z,98.66
2018-12-07T06:46:37.413Z,98.33
2018-12-07T06:47:37.423Z,97.66
2018-12-07T06:48:37.439Z,97.85
2018-12-07T06:49:37.481Z,97.85
2018-12-07T06:50:37.479Z,97.33
2018-12-07T06:51:37.489Z,96.89
2018-12-07T06:52:37.528Z,97.28
2018-12-07T06:53:37.518Z,97.37
2018-12-07T06:54:37.541Z,97.13
2018-12-07T06:55:37.564Z,96.61
2018-12-07T06:56:37.576Z,96.27
2018-12-07T06:57:37.592Z,96.56
2018-12-07T06:59:37.627Z,96.18
2018-12-07T07:00:37.720Z,95.89
2018-12-07T07:01:37.669Z,95.61
2018-12-07T07:02:37.708Z,95.84
2018-12-07T07:03:37.710Z,95.03
2018-12-07T07:04:37.716Z,94.74
2018-12-07T07:05:37.734Z,95.12
2018-12-07T07:06:37.753Z,94.98
2018-12-07T07:07:37.776Z,95.36
2018-12-07T07:08:37.802Z,95.46
2018-12-07T07:09:37.812Z,94.55
2018-12-07T07:10:37.830Z,94.12
2018-12-07T07:11:37.846Z,95.07
2018-12-07T07:12:37.866Z,94.89
2018-12-07T07:13:37.969Z,94.12
2018-12-07T07:14:37.902Z,94.22
2018-12-07T07:15:37.916Z,94.46
2018-12-07T07:16:37.932Z,93.79
2018-12-07T07:17:37.953Z,93.21
2018-12-07T07:18:37.969Z,93.69
2018-12-07T07:19:37.986Z,93.74
2018-12-07T07:20:38.006Z,93.84
2018-12-07T07:21:38.024Z,93.36
2018-12-07T07:22:38.040Z,93.74
2018-12-07T07:23:38.061Z,93.16
2018-12-07T07:24:38.075Z,92.88
2018-12-07T07:25:38.096Z,92.83
2018-12-07T07:26:38.122Z,92.45
2018-12-07T07:27:38.154Z,92.07
2018-12-07T07:28:38.168Z,92.07
2018-12-07T07:29:38.169Z,92.35
2018-12-07T07:30:38.228Z,92.25
2018-12-07T07:31:43.365Z,91.97
2018-12-07T07:32:38.224Z,92.64
2018-12-07T07:33:38.240Z,92.30
2018-12-07T07:34:38.257Z,91.68
2018-12-07T07:35:38.282Z,91.49
2018-12-07T07:36:38.290Z,90.92
2018-12-07T07:37:38.306Z,91.11
2018-12-07T07:38:38.379Z,91.02
2018-12-07T07:39:38.351Z,90.82
2018-12-07T07:40:38.372Z,90.63
2018-12-07T07:41:38.389Z,91.68
2018-12-07T07:42:38.398Z,91.68
2018-12-07T07:43:38.415Z,91.78
2018-12-07T07:44:38.440Z,92.07
2018-12-07T07:45:38.453Z,91.78
2018-12-07T07:46:38.479Z,91.59
2018-12-07T07:47:38.498Z,91.45
2018-12-07T07:48:38.516Z,91.78
2018-12-07T07:49:38.590Z,91.59
2018-12-07T07:50:38.539Z,91.68
2018-12-07T07:51:38.558Z,91.88
2018-12-07T07:52:38.590Z,91.88
2018-12-07T07:53:38.606Z,91.88
2018-12-07T07:54:38.629Z,91.88
2018-12-07T07:55:38.641Z,91.68
2018-12-07T07:56:38.658Z,90.73
2018-12-07T07:57:38.669Z,90.63
2018-12-07T07:59:38.709Z,90.92
2018-12-07T08:00:38.718Z,91.39
2018-12-07T08:01:38.738Z,91.49
2018-12-07T08:02:38.753Z,91.78
2018-12-07T08:03:38.782Z,91.78
2018-12-07T08:04:38.795Z,90.53
2018-12-07T08:05:38.811Z,91.02
2018-12-07T08:06:38.830Z,91.49
2018-12-07T08:07:38.844Z,90.44
2018-12-07T08:08:38.880Z,90.01
2018-12-07T08:09:39.015Z,89.87
2018-12-07T08:10:38.909Z,90.06
2018-12-07T08:11:38.919Z,90.44
2018-12-07T08:12:38.937Z,89.87
2018-12-07T08:13:38.963Z,89.77
2018-12-07T08:14:38.970Z,90.63
2018-12-07T08:15:39.000Z,90.44
2018-12-07T08:16:39.017Z,90.82
2018-12-07T08:17:39.023Z,91.59
2018-12-07T08:18:39.043Z,91.02
2018-12-07T08:19:39.062Z,90.92
2018-12-07T08:20:39.089Z,90.53
2018-12-07T08:21:39.169Z,90.06
2018-12-07T08:23:39.134Z,90.92
2018-12-07T08:24:39.151Z,91.02
2018-12-07T08:25:39.169Z,90.73
2018-12-07T08:26:39.186Z,90.63
2018-12-07T08:27:39.205Z,89.87
2018-12-07T08:28:39.225Z,89.87
2018-12-07T08:29:39.347Z,89.96
2018-12-07T08:30:39.254Z,89.39
2018-12-07T08:31:39.277Z,90.16
2018-12-07T08:32:39.298Z,91.20
2018-12-07T08:33:39.442Z,90.63
2018-12-07T08:34:39.344Z,89.29
2018-12-07T08:35:39.359Z,89.01
2018-12-07T08:36:39.397Z,89.58
2018-12-07T08:37:39.391Z,89.87
2018-12-07T08:38:39.417Z,89.87
2018-12-07T08:39:39.429Z,88.72
2018-12-07T08:40:39.437Z,88.81
2018-12-07T08:41:39.461Z,88.43
2018-12-07T08:42:39.484Z,88.53
2018-12-07T08:43:39.573Z,88.62
2018-12-07T08:44:39.506Z,88.62
2018-12-07T08:45:39.539Z,88.91
2018-12-07T08:46:39.595Z,88.34
2018-12-07T08:48:39.601Z,88.57
2018-12-07T08:49:39.595Z,87.71
2018-12-07T08:50:39.689Z,87.62
2018-12-07T08:51:39.637Z,87.66
2018-12-07T08:52:39.652Z,88.15
2018-12-07T08:53:39.673Z,88.38
2018-12-07T08:54:39.688Z,87.33
2018-12-07T08:55:39.725Z,87.23
2018-12-07T08:57:39.745Z,88.57
2018-12-07T08:58:39.765Z,87.81
2018-12-07T08:59:39.789Z,87.66
2018-12-07T09:00:39.802Z,87.52
2018-12-07T09:01:39.851Z,87.90
2018-12-07T09:02:39.852Z,87.71
2018-12-07T09:03:39.873Z,87.23
2018-12-07T09:04:39.867Z,87.04
2018-12-07T09:05:39.889Z,87.66
2018-12-07T09:06:39.908Z,88.15
2018-12-07T09:08:39.951Z,87.71
2018-12-07T09:09:39.973Z,88.15
2018-12-07T09:10:39.984Z,88.15
2018-12-07T09:11:40.000Z,88.15
2018-12-07T09:12:40.024Z,88.53
2018-12-07T09:13:40.044Z,87.95
2018-12-07T09:14:40.086Z,88.24
2018-12-07T09:15:40.142Z,88.81
2018-12-07T09:16:40.102Z,88.15
2018-12-07T09:17:40.107Z,88.05
2018-12-07T09:18:40.164Z,88.05
2018-12-07T09:20:40.166Z,88.67
2018-12-07T09:21:40.190Z,87.52
2018-12-07T09:22:40.208Z,87.48
2018-12-07T09:23:40.221Z,87.76
2018-12-07T09:24:40.249Z,87.66
2018-12-07T09:25:40.254Z,87.71
2018-12-07T09:26:40.270Z,88.91
2018-12-07T09:27:40.296Z,88.34
2018-12-07T09:28:40.325Z,87.14
2018-12-07T09:30:41.236Z,86.85
2018-12-07T09:31:40.363Z,86.37
2018-12-07T09:32:40.385Z,86.66
2018-12-07T09:33:40.403Z,86.08
2018-12-07T09:34:40.436Z,85.61
2018-12-07T09:35:40.437Z,85.99
2018-12-07T09:36:40.454Z,86.66
2018-12-07T09:37:40.492Z,86.85
2018-12-07T09:38:40.502Z,87.04
2018-12-07T09:39:40.522Z,87.52
2018-12-07T09:41:40.555Z,88.15
2018-12-07T09:42:40.649Z,88.53
2018-12-07T09:43:40.587Z,87.57
2018-12-07T09:44:40.606Z,87.71
2018-12-07T09:46:40.653Z,86.76
2018-12-07T09:47:40.666Z,87.23
2018-12-07T09:48:40.677Z,87.33
2018-12-07T09:49:40.703Z,88.15
2018-12-07T09:50:40.729Z,87.43
2018-12-07T09:51:40.737Z,87.04
2018-12-07T09:52:40.757Z,87.14
2018-12-07T09:53:40.774Z,85.99
2018-12-07T09:54:40.795Z,85.61
2018-12-07T09:55:40.820Z,85.99
2018-12-07T09:56:40.824Z,86.08
2018-12-07T09:57:40.859Z,86.18
2018-12-07T09:58:40.874Z,85.46
2018-12-07T09:59:40.882Z,85.65
2018-12-07T10:00:40.912Z,85.94
2018-12-07T10:01:40.919Z,85.80
2018-12-07T10:02:40.938Z,85.65
2018-12-07T10:03:40.966Z,85.94
2018-12-07T10:04:40.980Z,84.88
2018-12-07T10:05:40.995Z,84.88
2018-12-07T10:06:41.016Z,84.88
2018-12-07T10:07:41.038Z,85.89
2018-12-07T10:08:41.056Z,85.51
2018-12-07T10:09:41.078Z,86.28
2018-12-07T10:10:41.140Z,86.08
2018-12-07T10:11:41.108Z,85.99
2018-12-07T10:12:41.134Z,86.18
2018-12-07T10:13:41.155Z,86.08
2018-12-07T10:14:41.174Z,85.89
2018-12-07T10:15:41.218Z,85.99
2018-12-07T10:16:41.214Z,86.85
2018-12-07T10:18:41.252Z,87.14
2018-12-07T10:19:41.284Z,86.66
2018-12-07T10:20:41.280Z,86.57
2018-12-07T10:21:41.419Z,86.85
2018-12-07T10:22:41.314Z,87.14
2018-12-07T10:23:41.333Z,86.66
2018-12-07T10:24:41.356Z,86.94
2018-12-07T10:25:41.373Z,87.14
2018-12-07T10:26:41.388Z,87.14
2018-12-07T10:27:41.428Z,86.85
2018-12-07T10:28:41.424Z,86.66
2018-12-07T10:29:41.450Z,86.47
2018-12-07T10:30:41.511Z,87.52
2018-12-07T10:31:41.491Z,87.71
2018-12-07T10:32:41.501Z,86.94
2018-12-07T10:33:41.528Z,85.99
2018-12-07T10:34:41.561Z,85.51
2018-12-07T10:35:41.551Z,85.75
2018-12-07T10:36:41.585Z,86.47
2018-12-07T10:37:41.598Z,86.90
2018-12-07T10:38:41.615Z,86.47
2018-12-07T10:39:41.629Z,85.71
2018-12-07T10:40:41.651Z,85.61
2018-12-07T10:41:41.665Z,86.61
2018-12-07T10:42:41.719Z,87.09
2018-12-07T10:43:41.704Z,86.85
2018-12-07T10:44:41.730Z,85.51
2018-12-07T10:45:41.744Z,85.61
2018-12-07T10:46:41.754Z,85.41
2018-12-07T10:47:41.774Z,85.80
2018-12-07T10:48:41.803Z,85.99
2018-12-07T10:49:41.854Z,85.47
2018-12-07T10:50:41.832Z,87.19
2018-12-07T10:51:41.852Z,86.57
2018-12-07T10:52:41.865Z,85.94
2018-12-07T10:53:41.884Z,86.18
2018-12-07T10:54:41.933Z,85.71
2018-12-07T10:55:41.987Z,85.99
2018-12-07T10:56:41.938Z,85.99
2018-12-07T10:57:41.957Z,85.38
2018-12-07T10:58:41.976Z,85.75
2018-12-07T10:59:41.993Z,85.32
2018-12-07T11:00:42.060Z,85.89
2018-12-07T11:01:42.025Z,85.75
2018-12-07T11:02:42.171Z,86.90
2018-12-07T11:03:42.078Z,87.29
2018-12-07T11:04:42.080Z,86.90
2018-12-07T11:05:42.108Z,85.51
2018-12-07T11:06:42.131Z,85.51
2018-12-07T11:07:42.143Z,85.61
2018-12-07T11:09:42.174Z,85.80
2018-12-07T11:11:42.211Z,86.14
2018-12-07T11:12:42.246Z,85.03
2018-12-07T11:13:42.244Z,84.46
2018-12-07T11:14:42.262Z,85.03
2018-12-07T11:15:42.282Z,85.03
2018-12-07T11:16:42.318Z,85.09
2018-12-07T11:17:42.320Z,85.94
2018-12-07T11:18:42.339Z,85.94
2018-12-07T11:19:42.351Z,86.43
2018-12-07T11:20:42.367Z,86.43
2018-12-07T11:21:42.390Z,85.94
2018-12-07T11:22:42.409Z,86.43
2018-12-07T11:23:42.441Z,85.57
2018-12-07T11:24:42.445Z,85.66
2018-12-07T11:26:42.556Z,85.75
2018-12-07T11:28:42.526Z,85.75
2018-12-07T11:29:42.542Z,85.28
2018-12-07T11:30:42.554Z,85.57
2018-12-07T11:31:42.570Z,84.94
2018-12-07T11:32:42.607Z,84.75
2018-12-07T11:33:42.609Z,84.89
2018-12-07T11:34:42.629Z,84.70
2018-12-07T11:35:42.643Z,84.55
2018-12-07T11:36:42.667Z,84.70
2018-12-07T11:37:42.677Z,85.28
2018-12-07T11:38:42.705Z,85.09
2018-12-07T11:39:42.737Z,84.65
2018-12-07T11:40:42.735Z,84.36
2018-12-07T11:41:42.798Z,84.89
2018-12-07T11:42:42.791Z,85.75
2018-12-07T11:43:42.797Z,85.28
2018-12-07T11:44:42.805Z,86.04
2018-12-07T11:45:42.847Z,85.85
2018-12-07T11:46:42.851Z,85.38
2018-12-07T11:47:42.868Z,85.47
2018-12-07T11:48:42.879Z,85.85
2018-12-07T11:49:42.895Z,85.57
2018-12-07T11:50:42.924Z,85.57
2018-12-07T11:51:42.937Z,85.47
2018-12-07T11:52:42.986Z,85.80
2018-12-07T11:53:42.972Z,85.61
2018-12-07T11:54:43.107Z,85.41
2018-12-07T11:55:43.009Z,85.57
2018-12-07T11:56:43.023Z,86.52
2018-12-07T11:57:43.049Z,85.99
2018-12-07T11:58:43.142Z,85.80
2018-12-07T11:59:43.097Z,85.41
2018-12-07T12:00:43.097Z,85.18
2018-12-07T12:01:44.894Z,85.57
2018-12-07T12:02:43.147Z,84.27
2018-12-07T12:03:43.158Z,85.09
2018-12-07T12:04:43.171Z,84.55
2018-12-07T12:05:43.194Z,84.46
2018-12-07T12:06:43.220Z,84.27
2018-12-07T12:07:43.229Z,83.98
2018-12-07T12:08:43.245Z,84.80
2018-12-07T12:09:43.319Z,85.66
2018-12-07T12:10:43.284Z,85.57
2018-12-07T12:11:43.310Z,85.75
2018-12-07T12:12:43.315Z,85.66
2018-12-07T12:13:43.337Z,84.89
2018-12-07T12:15:43.385Z,84.32
2018-12-07T12:16:43.393Z,83.03
2018-12-07T12:17:43.405Z,83.03
2018-12-07T12:18:43.436Z,82.83
2018-12-07T12:19:43.465Z,83.12
2018-12-07T12:20:43.472Z,83.60
2018-12-07T12:21:43.511Z,82.26
2018-12-07T12:22:43.603Z,82.83
2018-12-07T12:23:43.513Z,82.83
2018-12-07T12:24:43.540Z,81.97
2018-12-07T12:25:43.548Z,82.45
2018-12-07T12:26:43.577Z,82.35
2018-12-07T12:27:43.587Z,82.83
2018-12-07T12:28:43.609Z,83.89
2018-12-07T12:29:43.628Z,84.52
2018-12-07T12:30:43.671Z,85.09
2018-12-07T12:31:43.660Z,84.70
2018-12-07T12:32:43.738Z,84.03
2018-12-07T12:34:43.712Z,84.99
2018-12-07T12:35:43.764Z,84.17
2018-12-07T12:36:43.748Z,83.60
2018-12-07T12:37:43.798Z,82.93
2018-12-07T12:38:43.800Z,84.03
2018-12-07T12:39:43.824Z,83.89
2018-12-07T12:40:43.823Z,83.22
2018-12-07T12:41:46.848Z,83.40
2018-12-07T12:42:43.903Z,83.31
2018-12-07T12:43:43.880Z,82.93
2018-12-07T12:44:43.894Z,83.22
2018-12-07T12:45:43.918Z,82.74
2018-12-07T12:46:43.927Z,83.22
2018-12-07T12:47:43.949Z,82.45
2018-12-07T12:48:43.980Z,81.59
2018-12-07T12:49:43.984Z,81.88
2018-12-07T12:50:44.069Z,82.17
2018-12-07T12:51:44.021Z,81.59
2018-12-07T12:52:44.047Z,81.02
2018-12-07T12:53:44.064Z,81.40
2018-12-07T12:54:44.093Z,81.97
2018-12-07T12:55:44.093Z,82.45
2018-12-07T12:56:44.116Z,82.26
2018-12-07T12:58:44.143Z,81.40
2018-12-07T12:59:44.172Z,81.78
2018-12-07T13:00:44.182Z,81.88
2018-12-07T13:01:44.211Z,82.12
2018-12-07T13:02:44.224Z,81.78
2018-12-07T13:03:44.265Z,82.07
2018-12-07T13:04:44.256Z,81.40
2018-12-07T13:05:44.277Z,82.26
2018-12-07T13:06:44.294Z,82.26
2018-12-07T13:07:44.356Z,82.26
2018-12-07T13:08:44.326Z,81.68
2018-12-07T13:09:44.361Z,81.21
2018-12-07T13:10:44.372Z,80.82
2018-12-07T13:11:44.395Z,80.73
2018-12-07T13:12:44.399Z,81.11
2018-12-07T13:13:44.474Z,81.11
2018-12-07T13:14:44.435Z,81.30
2018-12-07T13:15:44.480Z,80.73
2018-12-07T13:16:44.487Z,79.68
2018-12-07T13:17:44.500Z,80.25
2018-12-07T13:18:44.600Z,80.54
2018-12-07T13:19:44.537Z,80.69
2018-12-07T13:21:44.577Z,80.25
2018-12-07T13:22:44.586Z,79.77
2018-12-07T13:23:44.605Z,79.77
2018-12-07T13:24:44.635Z,80.54
2018-12-07T13:25:44.648Z,80.82
2018-12-07T13:26:44.662Z,79.96
2018-12-07T13:27:44.689Z,79.87
2018-12-07T13:28:44.705Z,80.25